Time;durP1;ratioP1;P1;durP2;ratioP2;P2;SDS_P1;SDS_P2;PMS_P1;PMS_P2;Temp;Humidity;BMP_temperature;BMP_pressure;BME280_temperature;BME280_humidity;BME280_pressure;Samples;Min_cycle;Max_cycle;Signal;HPM_P1;HPM_P2
2022/09/13 00:01:14;;;;;;;5.63;5.40;;;;;;;;;;5005566;28;20107;-71
2022/09/13 00:03:40;;;;;;;5.97;5.68;;;;;;;;;;5004119;28;20048;-71
2022/09/13 00:06:14;;;;;;;5.80;5.50;;;;;;;;;;5003389;28;20053;-71
2022/09/13 00:08:40;;;;;;;5.80;5.50;;;;;;;;;;5008446;28;20041;-72
2022/09/13 00:11:12;;;;;;;6.05;5.75;;;;;;;;;;5007526;28;20496;-71
2022/09/13 00:13:38;;;;;;;6.15;5.85;;;;;;;;;;5004748;28;20041;-71
2022/09/13 00:16:04;;;;;;;6.07;5.78;;;;;;;;;;5007641;28;20032;-71
2022/09/13 00:18:29;;;;;;;6.13;5.82;;;;;;;;;;5008653;28;20416;-71
2022/09/13 00:21:07;;;;;;;6.00;5.70;;;;;;;;;;5007136;28;20029;-72
2022/09/13 00:23:32;;;;;;;6.45;6.15;;;;;;;;;;5006109;28;20485;-71
2022/09/13 00:26:12;;;;;;;6.15;5.85;;;;;;;;;;5005514;28;20036;-71
2022/09/13 00:28:38;;;;;;;6.32;6.03;;;;;;;;;;5010456;28;20656;-71
2022/09/13 00:31:06;;;;;;;6.03;5.72;;;;;;;;;;5006705;28;20030;-71
2022/09/13 00:33:32;;;;;;;6.22;5.93;;;;;;;;;;5004598;28;20034;-71
2022/09/13 00:36:01;;;;;;;6.20;5.90;;;;;;;;;;5007937;28;20117;-71
2022/09/13 00:38:27;;;;;;;6.47;6.18;;;;;;;;;;5007509;28;20459;-71
2022/09/13 00:40:52;;;;;;;6.10;5.80;;;;;;;;;;5005452;28;20045;-71
2022/09/13 00:43:38;;;;;;;5.90;5.60;;;;;;;;;;5007526;28;20045;-71
2022/09/13 00:46:04;;;;;;;6.57;6.28;;;;;;;;;;5004675;28;20028;-72
2022/09/13 00:48:32;;;;;;;6.20;5.90;;;;;;;;;;5005664;28;20117;-72
2022/09/13 00:50:58;;;;;;;6.20;5.90;;;;;;;;;;5007053;28;20676;-71
2022/09/13 00:53:32;;;;;;;6.28;5.97;;;;;;;;;;5006869;28;20144;-71
2022/09/13 00:56:01;;;;;;;6.40;6.10;;;;;;;;;;5006001;28;20030;-71
2022/09/13 00:58:52;;;;;;;6.00;5.70;;;;;;;;;;5003596;28;20041;-71
2022/09/13 01:01:22;;;;;;;6.07;5.78;;;;;;;;;;4982486;28;20038;-71
2022/09/13 01:03:48;;;;;;;6.30;6.00;;;;;;;;;;5006509;28;20425;-71
2022/09/13 01:06:21;;;;;;;6.00;5.70;;;;;;;;;;5008759;28;20112;-71
2022/09/13 01:08:51;;;;;;;5.80;5.50;;;;;;;;;;5003482;28;20128;-71
2022/09/13 01:11:49;;;;;;;6.00;5.70;;;;;;;;;;5006001;28;20057;-71
2022/09/13 01:14:19;;;;;;;6.10;5.80;;;;;;;;;;5005387;28;20128;-71
2022/09/13 01:16:45;;;;;;;7.80;7.20;;;;;;;;;;5009183;28;20026;-71
2022/09/13 01:19:11;;;;;;;6.10;5.80;;;;;;;;;;5007845;28;20038;-71
2022/09/13 01:21:58;;;;;;;5.60;5.40;;;;;;;;;;5010337;28;20037;-71
2022/09/13 01:24:42;;;;;;;5.93;5.63;;;;;;;;;;5011609;28;20103;-71
2022/09/13 01:27:10;;;;;;;5.53;5.32;;;;;;;;;;5011261;28;20041;-71
2022/09/13 01:30:07;;;;;;;5.93;5.63;;;;;;;;;;5009322;28;20080;-72
2022/09/13 01:32:51;;;;;;;6.10;5.80;;;;;;;;;;5006087;28;20036;-72
2022/09/13 01:35:51;;;;;;;5.80;5.50;;;;;;;;;;5008608;28;20036;-72
2022/09/13 01:38:32;;;;;;;6.03;5.72;;;;;;;;;;5012769;28;20536;-71
2022/09/13 01:41:21;;;;;;;6.05;5.75;;;;;;;;;;5012070;28;20049;-72
2022/09/13 01:44:02;;;;;;;5.70;5.45;;;;;;;;;;5009939;28;20032;-72
2022/09/13 01:46:42;;;;;;;6.40;6.10;;;;;;;;;;5008935;28;20412;-72
2022/09/13 01:49:29;;;;;;;6.20;5.90;;;;;;;;;;5009160;28;20041;-72
2022/09/13 01:52:00;;;;;;;5.75;5.47;;;;;;;;;;5009244;28;20044;-71
2022/09/13 01:54:37;;;;;;;6.00;5.70;;;;;;;;;;5010838;28;20057;-71
2022/09/13 01:57:13;;;;;;;6.22;5.93;;;;;;;;;;5006077;28;20334;-72
2022/09/13 01:59:49;;;;;;;5.85;5.55;;;;;;;;;;5010212;28;20055;-71
2022/09/13 02:02:22;;;;;;;5.82;5.53;;;;;;;;;;5010797;28;20037;-72
2022/09/13 02:04:53;;;;;;;5.43;5.22;;;;;;;;;;5008515;28;20026;-71
2022/09/13 02:07:25;;;;;;;5.70;5.40;;;;;;;;;;5006701;28;20405;-71
2022/09/13 02:09:56;;;;;;;5.32;5.13;;;;;;;;;;5010915;28;20033;-71
2022/09/13 02:12:24;;;;;;;5.60;5.40;;;;;;;;;;5008657;28;20125;-71
2022/09/13 02:14:56;;;;;;;5.35;5.15;;;;;;;;;;5011547;28;20325;-71
2022/09/13 02:17:25;;;;;;;5.60;5.40;;;;;;;;;;5007376;28;20038;-71
2022/09/13 02:19:55;;;;;;;5.32;5.13;;;;;;;;;;5010638;28;20037;-71
2022/09/13 02:22:30;;;;;;;5.40;5.20;;;;;;;;;;5007557;28;20037;-71
2022/09/13 02:25:02;;;;;;;5.50;5.30;;;;;;;;;;5011184;28;20040;-71
2022/09/13 02:27:32;;;;;;;5.70;5.45;;;;;;;;;;5011647;28;20038;-71
2022/09/13 02:30:04;;;;;;;5.20;5.00;;;;;;;;;;5011083;28;20048;-71
2022/09/13 02:32:35;;;;;;;5.60;5.40;;;;;;;;;;5012128;28;20122;-71
2022/09/13 02:35:06;;;;;;;5.30;5.10;;;;;;;;;;5012660;28;20030;-71
2022/09/13 02:37:34;;;;;;;5.55;5.35;;;;;;;;;;5013102;28;20026;-72
2022/09/13 02:40:09;;;;;;;5.72;5.50;;;;;;;;;;5013296;28;20486;-71
2022/09/13 02:42:42;;;;;;;5.50;5.30;;;;;;;;;;5009016;28;20045;-71
2022/09/13 02:45:10;;;;;;;5.55;5.35;;;;;;;;;;5006959;28;20133;-71
2022/09/13 02:47:58;;;;;;;5.10;4.90;;;;;;;;;;5010090;28;20042;-71
2022/09/13 02:50:56;;;;;;;5.10;4.90;;;;;;;;;;5008799;28;20030;-71
2022/09/13 02:53:42;;;;;;;5.43;5.22;;;;;;;;;;5008834;28;20073;-71
2022/09/13 02:56:40;;;;;;;5.15;4.95;;;;;;;;;;5013636;28;20076;-71
2022/09/13 02:59:29;;;;;;;5.30;5.10;;;;;;;;;;4999255;28;20037;-71
2022/09/13 03:02:05;;;;;;;5.40;5.20;;;;;;;;;;5007832;28;20132;-71
2022/09/13 03:04:33;;;;;;;5.40;5.20;;;;;;;;;;5013736;28;20041;-71
2022/09/13 03:06:59;;;;;;;5.38;5.18;;;;;;;;;;5004316;28;20069;-71
2022/09/13 03:09:25;;;;;;;5.47;5.28;;;;;;;;;;5010044;28;20489;-71
2022/09/13 03:12:06;;;;;;;5.30;5.10;;;;;;;;;;5011208;28;20033;-71
2022/09/13 03:14:41;;;;;;;5.30;5.10;;;;;;;;;;5008428;28;20099;-71
2022/09/13 03:17:13;;;;;;;5.43;5.22;;;;;;;;;;5012495;28;20041;-71
2022/09/13 03:19:59;;;;;;;5.47;5.28;;;;;;;;;;5008960;28;20037;-71
2022/09/13 03:23:00;;;;;;;5.40;5.20;;;;;;;;;;5009942;28;20033;-71
2022/09/13 03:25:50;;;;;;;6.50;6.20;;;;;;;;;;5000730;28;20136;-71
2022/09/13 03:28:33;;;;;;;5.85;5.55;;;;;;;;;;5000982;28;20053;-71
2022/09/13 03:31:04;;;;;;;5.25;5.05;;;;;;;;;;5001233;28;20611;-71
2022/09/13 03:33:40;;;;;;;6.10;5.80;;;;;;;;;;4998408;28;20465;-71
2022/09/13 03:36:13;;;;;;;5.90;5.60;;;;;;;;;;4994872;28;20037;-71
2022/09/13 03:38:43;;;;;;;5.57;5.38;;;;;;;;;;4998889;28;20033;-71
2022/09/13 03:41:17;;;;;;;5.60;5.40;;;;;;;;;;4997262;28;20046;-71
2022/09/13 03:44:05;;;;;;;5.70;5.45;;;;;;;;;;4999131;28;20489;-71
2022/09/13 03:46:37;;;;;;;8.10;7.55;;;;;;;;;;4995917;28;20122;-71
2022/09/13 03:49:07;;;;;;;5.30;5.10;;;;;;;;;;5001038;28;20096;-71
2022/09/13 03:51:35;;;;;;;5.30;5.10;;;;;;;;;;4998556;28;20065;-71
2022/09/13 03:54:03;;;;;;;5.40;5.20;;;;;;;;;;5000846;28;20041;-71
2022/09/13 03:56:30;;;;;;;5.40;5.20;;;;;;;;;;4999154;28;20033;-71
2022/09/13 03:58:55;;;;;;;6.05;5.75;;;;;;;;;;4997591;28;20050;-71
2022/09/13 04:01:22;;;;;;;5.30;5.10;;;;;;;;;;5010429;28;20386;-71
2022/09/13 04:03:49;;;;;;;5.28;5.07;;;;;;;;;;5005012;28;20044;-71
2022/09/13 04:06:14;;;;;;;5.70;5.45;;;;;;;;;;5012906;28;20579;-71
2022/09/13 04:08:40;;;;;;;5.75;5.47;;;;;;;;;;5011451;28;20128;-71
2022/09/13 04:11:08;;;;;;;5.60;5.40;;;;;;;;;;5009549;28;20092;-71
2022/09/13 04:13:35;;;;;;;5.45;5.25;;;;;;;;;;5005176;28;20077;-71
2022/09/13 04:16:01;;;;;;;5.47;5.28;;;;;;;;;;5005220;28;20524;-71
2022/09/13 04:18:28;;;;;;;5.32;5.13;;;;;;;;;;5009913;28;20029;-71
2022/09/13 04:20:58;;;;;;;5.50;5.30;;;;;;;;;;5009898;28;20041;-71
2022/09/13 04:23:25;;;;;;;5.47;5.28;;;;;;;;;;5005549;28;20038;-71
2022/09/13 04:25:52;;;;;;;5.53;5.32;;;;;;;;;;5008483;28;20030;-71
2022/09/13 04:28:18;;;;;;;5.10;4.90;;;;;;;;;;5011136;28;20052;-71
2022/09/13 04:30:45;;;;;;;5.30;5.10;;;;;;;;;;5009245;28;20029;-72
2022/09/13 04:33:11;;;;;;;5.40;5.20;;;;;;;;;;5007871;28;20038;-71
2022/09/13 04:35:38;;;;;;;5.90;5.60;;;;;;;;;;5009307;28;20424;-71
2022/09/13 04:38:04;;;;;;;5.50;5.30;;;;;;;;;;5011135;28;20038;-71
2022/09/13 04:40:30;;;;;;;5.75;5.47;;;;;;;;;;5009884;28;20042;-70
2022/09/13 04:42:56;;;;;;;5.80;5.50;;;;;;;;;;5003905;28;20513;-70
2022/09/13 04:45:22;;;;;;;5.78;5.47;;;;;;;;;;5007296;28;20037;-71
2022/09/13 04:47:55;;;;;;;5.50;5.30;;;;;;;;;;5008111;28;20519;-70
2022/09/13 04:50:22;;;;;;;6.07;5.78;;;;;;;;;;5008470;28;20505;-70
2022/09/13 04:52:49;;;;;;;6.03;5.72;;;;;;;;;;5008537;28;20059;-70
2022/09/13 04:55:15;;;;;;;6.00;5.70;;;;;;;;;;5009872;28;20100;-70
2022/09/13 04:57:40;;;;;;;6.20;5.90;;;;;;;;;;5005525;28;20030;-70
2022/09/13 05:00:07;;;;;;;6.30;6.00;;;;;;;;;;5005085;28;20117;-70
2022/09/13 05:02:33;;;;;;;6.30;6.00;;;;;;;;;;5010811;28;20034;-70
2022/09/13 05:04:58;;;;;;;6.10;5.80;;;;;;;;;;5010637;28;20112;-70
2022/09/13 05:07:24;;;;;;;6.10;5.80;;;;;;;;;;5003084;28;20084;-70
2022/09/13 05:09:50;;;;;;;5.93;5.63;;;;;;;;;;5010834;28;20772;-70
2022/09/13 05:12:15;;;;;;;6.05;5.75;;;;;;;;;;5011029;28;20088;-70
2022/09/13 05:14:41;;;;;;;6.00;5.70;;;;;;;;;;5006856;28;20037;-70
2022/09/13 05:17:07;;;;;;;6.13;5.82;;;;;;;;;;5008865;28;20038;-70
2022/09/13 05:19:32;;;;;;;6.10;5.80;;;;;;;;;;5008085;28;20590;-70
2022/09/13 05:21:58;;;;;;;6.00;5.70;;;;;;;;;;5006956;28;20041;-70
2022/09/13 05:24:23;;;;;;;6.10;5.80;;;;;;;;;;5005150;28;20060;-70
2022/09/13 05:26:49;;;;;;;6.05;5.75;;;;;;;;;;5011920;28;20104;-70
2022/09/13 05:29:15;;;;;;;6.20;5.90;;;;;;;;;;5010490;28;20065;-70
2022/09/13 05:31:42;;;;;;;5.90;5.60;;;;;;;;;;5008475;28;20030;-70
2022/09/13 05:34:10;;;;;;;6.47;6.18;;;;;;;;;;5007488;28;20030;-70
2022/09/13 05:36:37;;;;;;;6.40;6.10;;;;;;;;;;5008444;28;20046;-70
2022/09/13 05:39:04;;;;;;;6.30;6.00;;;;;;;;;;5008898;28;20044;-70
2022/09/13 05:41:29;;;;;;;6.43;6.13;;;;;;;;;;5006631;28;20060;-70
2022/09/13 05:43:56;;;;;;;6.22;5.93;;;;;;;;;;5009063;28;20633;-70
2022/09/13 05:46:22;;;;;;;6.00;5.70;;;;;;;;;;5007277;28;20030;-70
2022/09/13 05:48:48;;;;;;;6.10;5.80;;;;;;;;;;5008323;28;20030;-71
2022/09/13 05:51:18;;;;;;;6.32;6.03;;;;;;;;;;5011821;28;20041;-70
2022/09/13 05:53:46;;;;;;;6.35;6.05;;;;;;;;;;5007411;28;20697;-70
2022/09/13 05:56:18;;;;;;;6.35;6.05;;;;;;;;;;5009924;28;20057;-70
2022/09/13 05:58:47;;;;;;;6.32;6.03;;;;;;;;;;5005790;28;20509;-71
2022/09/13 06:01:14;;;;;;;6.45;6.15;;;;;;;;;;4997615;28;20042;-71
2022/09/13 06:03:41;;;;;;;6.72;6.43;;;;;;;;;;5012420;28;20049;-70
2022/09/13 06:06:08;;;;;;;6.60;6.30;;;;;;;;;;5010965;28;20116;-70
2022/09/13 06:08:34;;;;;;;6.00;5.70;;;;;;;;;;5011363;28;20092;-70
2022/09/13 06:11:06;;;;;;;6.75;6.45;;;;;;;;;;5002787;28;20862;-69
2022/09/13 06:13:32;;;;;;;6.18;5.88;;;;;;;;;;5008723;28;20034;-69
2022/09/13 06:15:59;;;;;;;6.50;6.20;;;;;;;;;;5011739;28;20033;-70
2022/09/13 06:18:26;;;;;;;6.57;6.28;;;;;;;;;;5011817;28;20034;-70
2022/09/13 06:21:07;;;;;;;6.57;6.28;;;;;;;;;;5008202;28;20030;-70
2022/09/13 06:23:33;;;;;;;6.40;6.10;;;;;;;;;;5008069;28;20137;-70
2022/09/13 06:26:06;;;;;;;6.57;6.28;;;;;;;;;;5008086;28;20349;-70
2022/09/13 06:28:32;;;;;;;6.40;6.10;;;;;;;;;;5013854;28;20041;-70
2022/09/13 06:31:12;;;;;;;7.00;6.70;;;;;;;;;;5010402;28;20026;-70
2022/09/13 06:33:39;;;;;;;6.53;6.22;;;;;;;;;;5011299;28;20044;-70
2022/09/13 06:36:08;;;;;;;6.47;6.18;;;;;;;;;;5012582;28;20141;-70
2022/09/13 06:38:33;;;;;;;6.15;5.85;;;;;;;;;;5008831;28;20040;-70
2022/09/13 06:41:00;;;;;;;6.40;6.10;;;;;;;;;;5026103;28;20034;-70
2022/09/13 06:43:26;;;;;;;6.30;6.00;;;;;;;;;;5009117;28;20096;-70
2022/09/13 06:45:52;;;;;;;6.22;5.93;;;;;;;;;;5010384;28;20673;-69
2022/09/13 06:48:18;;;;;;;6.55;6.25;;;;;;;;;;5007884;28;20030;-68
2022/09/13 06:50:44;;;;;;;6.50;6.20;;;;;;;;;;5012160;28;20107;-70
2022/09/13 06:53:10;;;;;;;6.65;6.35;;;;;;;;;;5009416;28;20048;-70
2022/09/13 06:55:35;;;;;;;6.80;6.50;;;;;;;;;;5026635;28;20049;-70
2022/09/13 06:58:01;;;;;;;6.93;6.63;;;;;;;;;;5011290;28;20034;-70
2022/09/13 07:00:27;;;;;;;7.15;6.85;;;;;;;;;;5011049;28;20030;-69
2022/09/13 07:02:52;;;;;;;6.93;6.63;;;;;;;;;;5009413;28;20077;-70
2022/09/13 07:05:19;;;;;;;6.70;6.40;;;;;;;;;;5009235;28;20144;-70
2022/09/13 07:07:45;;;;;;;6.22;5.93;;;;;;;;;;5009653;28;20069;-70
2022/09/13 07:10:11;;;;;;;6.68;6.38;;;;;;;;;;5014028;28;20052;-69
2022/09/13 07:12:40;;;;;;;7.05;6.75;;;;;;;;;;5009090;28;20029;-70
2022/09/13 07:15:06;;;;;;;6.60;6.30;;;;;;;;;;5009657;28;20029;-70
2022/09/13 07:17:31;;;;;;;6.63;6.32;;;;;;;;;;5012159;28;20030;-70
2022/09/13 07:19:57;;;;;;;6.95;6.65;;;;;;;;;;5009573;28;20041;-70
2022/09/13 07:22:25;;;;;;;6.45;6.15;;;;;;;;;;5010870;28;20481;-70
2022/09/13 07:24:51;;;;;;;6.43;6.13;;;;;;;;;;5009458;28;20057;-70
2022/09/13 07:27:17;;;;;;;6.60;6.30;;;;;;;;;;5010529;28;20038;-70
2022/09/13 07:29:42;;;;;;;6.32;6.03;;;;;;;;;;5009708;28;20045;-70
2022/09/13 07:32:08;;;;;;;6.40;6.10;;;;;;;;;;5014587;28;20037;-70
2022/09/13 07:34:34;;;;;;;6.60;6.30;;;;;;;;;;5012436;28;20540;-68
2022/09/13 07:37:01;;;;;;;6.13;5.82;;;;;;;;;;5023190;28;20033;-70
2022/09/13 07:39:26;;;;;;;6.47;6.18;;;;;;;;;;5005207;28;20049;-70
2022/09/13 07:41:52;;;;;;;6.60;6.30;;;;;;;;;;5010735;28;20041;-69
2022/09/13 07:44:18;;;;;;;6.80;6.50;;;;;;;;;;5008195;28;20124;-70
2022/09/13 07:46:43;;;;;;;7.15;6.85;;;;;;;;;;5009816;28;20041;-70
2022/09/13 07:49:11;;;;;;;6.35;6.05;;;;;;;;;;5011608;28;20413;-70
2022/09/13 07:51:39;;;;;;;6.10;5.80;;;;;;;;;;5014056;28;20034;-70
2022/09/13 07:54:08;;;;;;;6.10;5.80;;;;;;;;;;5010415;28;20202;-69
2022/09/13 07:56:36;;;;;;;6.35;6.05;;;;;;;;;;5009320;28;20094;-69
2022/09/13 07:59:04;;;;;;;6.60;6.30;;;;;;;;;;5007442;28;21112;-70
2022/09/13 08:01:39;;;;;;;6.22;5.93;;;;;;;;;;5006606;28;20044;-70
2022/09/13 08:04:13;;;;;;;6.75;6.45;;;;;;;;;;5002858;28;20030;-70
2022/09/13 08:06:40;;;;;;;6.35;6.05;;;;;;;;;;5008074;28;20042;-70
2022/09/13 08:09:07;;;;;;;6.32;6.03;;;;;;;;;;5006631;28;20038;-70
2022/09/13 08:11:36;;;;;;;6.13;5.82;;;;;;;;;;5005082;28;20036;-70
2022/09/13 08:14:02;;;;;;;6.55;6.25;;;;;;;;;;5010004;28;20033;-70
2022/09/13 08:16:29;;;;;;;6.22;5.93;;;;;;;;;;5010269;28;20513;-69
2022/09/13 08:18:58;;;;;;;6.50;6.20;;;;;;;;;;5007678;28;20395;-69
2022/09/13 08:21:24;;;;;;;6.50;6.20;;;;;;;;;;5007633;28;20048;-70
2022/09/13 08:23:54;;;;;;;6.20;5.90;;;;;;;;;;5008464;28;20084;-69
2022/09/13 08:26:20;;;;;;;6.18;5.88;;;;;;;;;;5008818;28;20148;-69
2022/09/13 08:28:46;;;;;;;6.18;5.88;;;;;;;;;;5011271;28;20461;-70
2022/09/13 08:31:15;;;;;;;6.10;5.80;;;;;;;;;;5004055;28;20042;-70
2022/09/13 08:33:45;;;;;;;5.75;5.45;;;;;;;;;;5008739;28;21198;-69
2022/09/13 08:36:11;;;;;;;6.20;5.90;;;;;;;;;;5010016;28;20635;-69
2022/09/13 08:38:36;;;;;;;6.10;5.80;;;;;;;;;;5008071;28;20500;-70
2022/09/13 08:41:17;;;;;;;5.95;5.65;;;;;;;;;;5007813;28;20038;-70
2022/09/13 08:44:02;;;;;;;6.03;5.72;;;;;;;;;;5009163;28;20441;-69
2022/09/13 08:46:31;;;;;;;6.10;5.80;;;;;;;;;;5006362;28;20641;-70
2022/09/13 08:49:04;;;;;;;;;;;;;;;;;;5007817;28;20030;-69
2022/09/13 08:51:48;;;;;;;5.60;5.38;;;;;;;;;;5007044;28;19964;-70
2022/09/13 08:54:16;;;;;;;5.18;4.97;;;;;;;;;;5008137;28;20050;-70
2022/09/13 08:57:04;;;;;;;5.15;4.95;;;;;;;;;;5008343;28;20085;-69
2022/09/13 08:59:45;;;;;;;5.30;5.10;;;;;;;;;;5005519;28;20184;-70
2022/09/13 09:02:25;;;;;;;5.20;5.00;;;;;;;;;;5007961;28;20053;-69
2022/09/13 09:05:00;;;;;;;5.40;5.20;;;;;;;;;;5011192;28;20405;-70
2022/09/13 09:07:30;;;;;;;5.25;5.05;;;;;;;;;;5008859;28;20037;-70
2022/09/13 09:10:06;;;;;;;5.63;5.40;;;;;;;;;;5011924;28;20030;-69
2022/09/13 09:12:32;;;;;;;5.45;5.25;;;;;;;;;;5010439;28;20034;-69
2022/09/13 09:15:14;;;;;;;5.90;5.60;;;;;;;;;;5009170;28;20374;-69
2022/09/13 09:17:52;;;;;;;5.78;5.47;;;;;;;;;;5008729;28;20030;-69
2022/09/13 09:20:24;;;;;;;6.18;5.88;;;;;;;;;;5009110;28;20083;-69
2022/09/13 09:22:51;;;;;;;6.10;5.80;;;;;;;;;;5006569;28;20103;-69
2022/09/13 09:25:20;;;;;;;5.88;5.57;;;;;;;;;;5007521;28;20531;-70
2022/09/13 09:27:46;;;;;;;5.47;5.28;;;;;;;;;;5011262;28;20041;-69
2022/09/13 09:30:15;;;;;;;6.07;5.78;;;;;;;;;;5010178;28;20044;-70
2022/09/13 09:33:24;;;;;;;6.10;5.80;;;;;;;;;;5011638;28;20045;-70
2022/09/13 09:35:56;;;;;;;6.38;6.07;;;;;;;;;;5011833;28;20033;-70
2022/09/13 09:38:41;;;;;;;6.20;5.90;;;;;;;;;;5012253;28;20034;-69
2022/09/13 09:41:39;;;;;;;6.20;5.90;;;;;;;;;;5010021;28;20579;-69
2022/09/13 09:44:26;;;;;;;5.80;5.50;;;;;;;;;;5006537;28;20121;-70
2022/09/13 09:47:19;;;;;;;5.80;5.50;;;;;;;;;;5015221;28;20109;-69
2022/09/13 09:50:08;;;;;;;6.50;6.20;;;;;;;;;;5010921;28;20068;-70
2022/09/13 09:52:43;;;;;;;6.10;5.80;;;;;;;;;;5015338;28;20116;-69
2022/09/13 09:55:30;;;;;;;6.00;5.70;;;;;;;;;;5016622;28;20064;-70
2022/09/13 09:57:59;;;;;;;6.22;5.85;;;;;;;;;;5017640;28;20033;-69
2022/09/13 10:00:28;;;;;;;;;;;;;;;;;;5012358;28;20033;-69
2022/09/13 10:02:58;;;;;;;5.80;5.50;;;;;;;;;;5011913;28;19913;-68
2022/09/13 10:05:26;;;;;;;6.40;6.10;;;;;;;;;;5014128;28;20113;-69
2022/09/13 10:08:01;;;;;;;5.77;5.47;;;;;;;;;;5012193;28;20132;-69
2022/09/13 10:10:41;;;;;;;5.88;5.57;;;;;;;;;;5011672;28;20072;-69
2022/09/13 10:13:15;;;;;;;5.50;5.30;;;;;;;;;;5011870;28;20417;-68
2022/09/13 10:15:53;;;;;;;5.97;5.68;;;;;;;;;;5012950;28;20047;-69
2022/09/13 10:18:24;;;;;;;5.80;5.50;;;;;;;;;;5014568;28;20041;-69
2022/09/13 10:21:18;;;;;;;5.55;5.32;;;;;;;;;;5011083;28;20057;-69
2022/09/13 10:23:45;;;;;;;4.75;4.55;;;;;;;;;;5008821;28;20040;-69
2022/09/13 10:26:15;;;;;;;5.50;5.30;;;;;;;;;;5013076;28;20718;-69
2022/09/13 10:28:45;;;;;;;5.45;5.25;;;;;;;;;;5013582;28;20432;-68
2022/09/13 10:31:14;;;;;;;5.40;5.20;;;;;;;;;;5011988;28;20121;-69
2022/09/13 10:33:49;;;;;;;5.22;5.03;;;;;;;;;;5012260;28;20100;-70
2022/09/13 10:36:23;;;;;;;5.50;5.30;;;;;;;;;;5012804;28;20609;-69
2022/09/13 10:39:17;;;;;;;5.90;5.60;;;;;;;;;;5011415;28;20034;-69
2022/09/13 10:41:50;;;;;;;4.78;4.57;;;;;;;;;;5002991;28;20052;-69
2022/09/13 10:44:27;;;;;;;5.30;5.10;;;;;;;;;;5011154;28;20033;-70
2022/09/13 10:46:53;;;;;;;5.20;5.00;;;;;;;;;;5012938;28;20104;-69
2022/09/13 10:49:45;;;;;;;5.28;5.07;;;;;;;;;;5011777;28;20112;-70
2022/09/13 10:52:23;;;;;;;5.15;4.95;;;;;;;;;;5005772;28;20045;-70
2022/09/13 10:54:48;;;;;;;5.07;4.88;;;;;;;;;;5010841;28;20033;-70
2022/09/13 10:57:47;;;;;;;4.63;4.43;;;;;;;;;;5012024;28;20428;-70
2022/09/13 11:00:18;;;;;;;5.20;5.00;;;;;;;;;;4965950;28;20070;-69
2022/09/13 11:03:21;;;;;;;5.15;4.95;;;;;;;;;;4967639;28;20578;-69
2022/09/13 11:06:24;;;;;;;5.22;5.03;;;;;;;;;;4967393;28;20082;-70
2022/09/13 11:09:35;;;;;;;4.80;4.60;;;;;;;;;;4965377;28;20494;-69
2022/09/13 11:12:09;;;;;;;4.78;4.57;;;;;;;;;;4909161;29;20153;-70
2022/09/13 11:14:46;;;;;;;4.60;4.40;;;;;;;;;;4958808;28;20070;-70
2022/09/13 11:17:38;;;;;;;4.50;4.30;;;;;;;;;;4966029;28;20046;-69
2022/09/13 11:20:28;;;;;;;4.70;4.50;;;;;;;;;;4967375;28;20125;-70
2022/09/13 11:23:29;;;;;;;4.50;4.30;;;;;;;;;;4967012;28;20221;-70
2022/09/13 11:26:20;;;;;;;4.60;4.40;;;;;;;;;;4965944;28;20031;-70
2022/09/13 11:28:48;;;;;;;4.75;4.55;;;;;;;;;;4949687;28;20270;-70
2022/09/13 11:31:14;;;;;;;4.78;4.57;;;;;;;;;;4967348;28;20217;-70
2022/09/13 11:33:45;;;;;;;4.80;4.60;;;;;;;;;;4953398;28;20454;-69
2022/09/13 11:36:33;;;;;;;4.90;4.70;;;;;;;;;;4994734;28;20046;-69
2022/09/13 11:39:37;;;;;;;5.57;5.38;;;;;;;;;;5009740;28;20473;-70
2022/09/13 11:42:44;;;;;;;5.35;5.15;;;;;;;;;;4985012;28;20050;-70
2022/09/13 11:45:19;;;;;;;5.40;5.20;;;;;;;;;;5006688;28;20046;-69
2022/09/13 11:48:03;;;;;;;5.22;5.03;;;;;;;;;;5004955;28;20386;-70
2022/09/13 11:51:03;;;;;;;5.30;5.10;;;;;;;;;;5009047;28;20527;-69
2022/09/13 11:53:51;;;;;;;5.20;5.00;;;;;;;;;;5005780;28;20037;-70
2022/09/13 11:56:25;;;;;;;4.78;4.57;;;;;;;;;;5008195;28;20049;-69
2022/09/13 11:59:09;;;;;;;5.35;5.15;;;;;;;;;;5008744;28;20628;-69
2022/09/13 12:01:42;;;;;;;5.30;5.10;;;;;;;;;;5009167;28;20026;-69
2022/09/13 12:04:44;;;;;;;5.50;5.30;;;;;;;;;;5006753;28;20045;-71
2022/09/13 12:07:17;;;;;;;5.47;5.28;;;;;;;;;;5003868;28;20041;-70
2022/09/13 12:09:54;;;;;;;5.30;5.10;;;;;;;;;;5008457;28;20033;-69
2022/09/13 12:12:24;;;;;;;5.30;5.10;;;;;;;;;;5007658;28;20047;-69
2022/09/13 12:14:58;;;;;;;5.30;5.10;;;;;;;;;;5008217;28;20068;-70
2022/09/13 12:17:27;;;;;;;5.30;5.10;;;;;;;;;;5007236;28;20040;-70
2022/09/13 12:19:56;;;;;;;5.03;4.82;;;;;;;;;;5008058;28;20042;-70
2022/09/13 12:22:29;;;;;;;4.95;4.75;;;;;;;;;;5008016;28;20030;-70
2022/09/13 12:25:02;;;;;;;5.10;4.90;;;;;;;;;;5010323;28;20125;-69
2022/09/13 12:27:40;;;;;;;5.40;5.20;;;;;;;;;;5006221;28;20026;-70
2022/09/13 12:30:14;;;;;;;5.30;5.10;;;;;;;;;;5021491;28;20661;-70
2022/09/13 12:32:43;;;;;;;5.38;5.18;;;;;;;;;;5006710;28;20674;-70
2022/09/13 12:35:30;;;;;;;5.28;5.07;;;;;;;;;;5009771;28;20045;-70
2022/09/13 12:38:24;;;;;;;5.57;5.20;;;;;;;;;;5009346;28;20041;-70
2022/09/13 12:41:04;;;;;;;5.32;5.13;;;;;;;;;;5008938;28;20029;-69
2022/09/13 12:43:36;;;;;;;5.50;5.30;;;;;;;;;;5005192;28;20045;-69
2022/09/13 12:46:31;;;;;;;5.63;5.40;;;;;;;;;;5009909;28;20033;-69
2022/09/13 12:49:19;;;;;;;5.50;5.30;;;;;;;;;;5010972;28;20033;-70
2022/09/13 12:52:20;;;;;;;5.30;5.10;;;;;;;;;;5005618;28;20529;-70
2022/09/13 12:55:23;;;;;;;5.40;5.20;;;;;;;;;;5003522;28;20054;-69
2022/09/13 12:58:25;;;;;;;5.63;5.38;;;;;;;;;;5007237;28;20041;-70
2022/09/13 13:01:07;;;;;;;5.80;5.50;;;;;;;;;;5004488;28;20642;-70
2022/09/13 13:03:42;;;;;;;5.40;5.20;;;;;;;;;;5006929;28;20045;-70
2022/09/13 13:06:19;;;;;;;5.72;5.45;;;;;;;;;;5006433;28;20416;-70
2022/09/13 13:08:51;;;;;;;5.55;5.35;;;;;;;;;;5003201;28;20069;-70
2022/09/13 13:11:23;;;;;;;5.60;5.40;;;;;;;;;;5006599;28;20390;-70
2022/09/13 13:14:08;;;;;;;5.97;5.68;;;;;;;;;;5007333;28;20034;-70
2022/09/13 13:16:37;;;;;;;5.85;5.55;;;;;;;;;;5018695;28;20030;-70
2022/09/13 13:19:35;;;;;;;5.80;5.50;;;;;;;;;;5005819;28;20148;-70
2022/09/13 13:22:38;;;;;;;5.55;5.35;;;;;;;;;;5003977;28;20408;-70
2022/09/13 13:25:37;;;;;;;5.32;5.13;;;;;;;;;;5007849;28;20636;-70
2022/09/13 13:28:42;;;;;;;5.50;5.30;;;;;;;;;;4962427;28;20053;-70
2022/09/13 13:31:30;;;;;;;5.40;5.20;;;;;;;;;;4965859;28;20426;-69
2022/09/13 13:34:21;;;;;;;5.60;5.40;;;;;;;;;;4958060;28;20053;-69
2022/09/13 13:36:51;;;;;;;5.82;5.53;;;;;;;;;;4960590;28;20043;-70
2022/09/13 13:39:23;;;;;;;5.80;5.50;;;;;;;;;;4962348;28;20454;-69
2022/09/13 13:41:58;;;;;;;5.53;5.32;;;;;;;;;;4962930;28;20763;-70
2022/09/13 13:44:24;;;;;;;5.30;5.10;;;;;;;;;;4964962;28;20106;-70
2022/09/13 13:46:52;;;;;;;5.45;5.25;;;;;;;;;;4964752;28;20498;-69
2022/09/13 13:49:30;;;;;;;5.82;5.53;;;;;;;;;;4962322;28;20034;-70
2022/09/13 13:52:08;;;;;;;5.53;5.30;;;;;;;;;;4963784;28;20133;-69
2022/09/13 13:54:39;;;;;;;5.07;4.88;;;;;;;;;;4968890;28;20081;-69
2022/09/13 13:57:25;;;;;;;5.30;5.10;;;;;;;;;;4968868;28;20030;-69
2022/09/13 14:00:11;;;;;;;5.32;5.13;;;;;;;;;;4961082;28;20042;-69
2022/09/13 14:02:49;;;;;;;5.38;5.18;;;;;;;;;;4962197;28;20051;-69
2022/09/13 14:05:52;;;;;;;5.43;5.22;;;;;;;;;;5000783;28;20413;-69
2022/09/13 14:08:18;;;;;;;5.50;5.30;;;;;;;;;;5005488;28;20045;-70
2022/09/13 14:10:57;;;;;;;5.50;5.30;;;;;;;;;;5004699;28;20041;-69
2022/09/13 14:13:44;;;;;;;5.80;5.50;;;;;;;;;;5009401;28;20070;-69
2022/09/13 14:16:55;;;;;;;5.88;5.57;;;;;;;;;;4999202;28;20048;-69
2022/09/13 14:19:25;;;;;;;5.68;5.43;;;;;;;;;;4962053;28;20349;-70
2022/09/13 14:22:15;;;;;;;5.75;5.47;;;;;;;;;;4962603;28;20050;-70
2022/09/13 14:24:47;;;;;;;5.50;5.30;;;;;;;;;;4963984;28;20061;-69
2022/09/13 14:27:23;;;;;;;5.28;5.07;;;;;;;;;;4966536;28;20046;-69
2022/09/13 14:29:51;;;;;;;5.45;5.25;;;;;;;;;;4965155;28;20043;-69
2022/09/13 14:32:21;;;;;;;5.90;5.60;;;;;;;;;;4965387;28;20050;-69
2022/09/13 14:34:53;;;;;;;5.57;5.38;;;;;;;;;;4963588;28;20047;-69
2022/09/13 14:37:28;;;;;;;5.35;5.15;;;;;;;;;;4966076;28;20079;-68
2022/09/13 14:40:01;;;;;;;5.40;5.20;;;;;;;;;;4965491;28;20054;-69
2022/09/13 14:42:38;;;;;;;5.47;5.28;;;;;;;;;;4959209;28;20466;-70
2022/09/13 14:45:04;;;;;;;5.97;5.68;;;;;;;;;;4966852;28;20097;-70
2022/09/13 14:47:36;;;;;;;5.75;5.45;;;;;;;;;;4965845;28;20035;-70
2022/09/13 14:50:12;;;;;;;5.80;5.50;;;;;;;;;;4965762;28;20582;-70
2022/09/13 14:52:52;;;;;;;5.68;5.40;;;;;;;;;;4965177;28;20113;-70
2022/09/13 14:55:22;;;;;;;5.43;5.22;;;;;;;;;;4970057;28;20081;-70
2022/09/13 14:57:52;;;;;;;5.40;5.20;;;;;;;;;;5007584;28;20033;-69
2022/09/13 15:00:20;;;;;;;5.05;4.85;;;;;;;;;;5006885;28;20521;-69
2022/09/13 15:02:55;;;;;;;5.55;5.35;;;;;;;;;;5006186;28;20042;-70
2022/09/13 15:05:24;;;;;;;5.50;5.30;;;;;;;;;;5012514;28;20042;-69
2022/09/13 15:07:50;;;;;;;5.30;5.10;;;;;;;;;;5007084;28;20037;-69
2022/09/13 15:10:16;;;;;;;5.25;5.05;;;;;;;;;;5008543;28;20037;-69
2022/09/13 15:12:52;;;;;;;5.20;5.00;;;;;;;;;;5013028;28;20524;-69
2022/09/13 15:15:18;;;;;;;5.30;5.10;;;;;;;;;;5008807;28;20429;-69
2022/09/13 15:17:58;;;;;;;5.65;5.43;;;;;;;;;;5004894;28;20038;-70
2022/09/13 15:20:42;;;;;;;5.22;5.03;;;;;;;;;;5008427;28;20060;-69
2022/09/13 15:23:33;;;;;;;5.68;5.40;;;;;;;;;;5008814;28;20042;-70
2022/09/13 15:26:20;;;;;;;6.20;5.90;;;;;;;;;;5008804;28;20053;-69